sensor_id;sensor_type;location;lat;lon;timestamp;pressure;altitude;pressure_sealevel;temperature
68911;BMP180;55953;51.650;-0.522;2022-08-16T00:01:24;99706.60;;;20.60
68911;BMP180;55953;51.650;-0.522;2022-08-16T00:04:00;99701.40;;;20.60
68911;BMP180;55953;51.650;-0.522;2022-08-16T00:06:31;99702.20;;;20.52
68911;BMP180;55953;51.650;-0.522;2022-08-16T00:08:59;99699.60;;;20.50
68911;BMP180;55953;51.650;-0.522;2022-08-16T00:11:27;99692.60;;;20.42
68911;BMP180;55953;51.650;-0.522;2022-08-16T00:13:56;99687.40;;;20.34
68911;BMP180;55953;51.650;-0.522;2022-08-16T00:16:28;99691.40;;;20.30
68911;BMP180;55953;51.650;-0.522;2022-08-16T00:19:24;99692.80;;;20.18
68911;BMP180;55953;51.650;-0.522;2022-08-16T00:21:56;99686.80;;;20.10
68911;BMP180;55953;51.650;-0.522;2022-08-16T00:24:33;99684.60;;;20.00
68911;BMP180;55953;51.650;-0.522;2022-08-16T00:27:03;99683.80;;;20.00
68911;BMP180;55953;51.650;-0.522;2022-08-16T00:29:32;99682.00;;;20.00
68911;BMP180;55953;51.650;-0.522;2022-08-16T00:32:04;99680.00;;;19.96
68911;BMP180;55953;51.650;-0.522;2022-08-16T00:34:35;99682.40;;;19.90
68911;BMP180;55953;51.650;-0.522;2022-08-16T00:37:23;99681.40;;;19.86
68911;BMP180;55953;51.650;-0.522;2022-08-16T00:40:32;99684.20;;;19.80
68911;BMP180;55953;51.650;-0.522;2022-08-16T00:43:20;99677.00;;;19.70
68911;BMP180;55953;51.650;-0.522;2022-08-16T00:48:52;99680.00;;;19.60
68911;BMP180;55953;51.650;-0.522;2022-08-16T00:51:23;99681.80;;;19.50
68911;BMP180;55953;51.650;-0.522;2022-08-16T00:53:56;99683.60;;;19.48
68911;BMP180;55953;51.650;-0.522;2022-08-16T00:56:30;99680.40;;;19.40
68911;BMP180;55953;51.650;-0.522;2022-08-16T00:59:24;99676.00;;;19.32
68911;BMP180;55953;51.650;-0.522;2022-08-16T01:01:53;99667.20;;;19.30
68911;BMP180;55953;51.650;-0.522;2022-08-16T01:04:25;99668.20;;;19.20
68911;BMP180;55953;51.650;-0.522;2022-08-16T01:07:01;99668.60;;;19.10
68911;BMP180;55953;51.650;-0.522;2022-08-16T01:09:37;99665.20;;;19.10
68911;BMP180;55953;51.650;-0.522;2022-08-16T01:12:10;99663.40;;;19.10
68911;BMP180;55953;51.650;-0.522;2022-08-16T01:14:57;99657.80;;;19.20
68911;BMP180;55953;51.650;-0.522;2022-08-16T01:17:28;99659.40;;;19.22
68911;BMP180;55953;51.650;-0.522;2022-08-16T01:20:08;99655.80;;;19.20
68911;BMP180;55953;51.650;-0.522;2022-08-16T01:23:13;99659.40;;;19.10
68911;BMP180;55953;51.650;-0.522;2022-08-16T01:25:47;99658.60;;;19.10
68911;BMP180;55953;51.650;-0.522;2022-08-16T01:28:36;99664.00;;;19.02
68911;BMP180;55953;51.650;-0.522;2022-08-16T01:31:14;99667.00;;;19.00
68911;BMP180;55953;51.650;-0.522;2022-08-16T01:33:44;99668.40;;;18.90
68911;BMP180;55953;51.650;-0.522;2022-08-16T01:36:17;99669.40;;;18.90
68911;BMP180;55953;51.650;-0.522;2022-08-16T01:38:48;99671.40;;;18.90
68911;BMP180;55953;51.650;-0.522;2022-08-16T01:41:28;99676.20;;;19.00
68911;BMP180;55953;51.650;-0.522;2022-08-16T01:43:59;99674.60;;;19.10
68911;BMP180;55953;51.650;-0.522;2022-08-16T01:46:39;99670.00;;;19.14
68911;BMP180;55953;51.650;-0.522;2022-08-16T01:49:21;99671.00;;;19.20
68911;BMP180;55953;51.650;-0.522;2022-08-16T01:52:11;99668.20;;;19.20
68911;BMP180;55953;51.650;-0.522;2022-08-16T01:55:20;99667.40;;;19.10
68911;BMP180;55953;51.650;-0.522;2022-08-16T01:57:50;99671.00;;;19.10
68911;BMP180;55953;51.650;-0.522;2022-08-16T02:00:25;99670.00;;;19.10
68911;BMP180;55953;51.650;-0.522;2022-08-16T02:02:58;99667.80;;;19.02
68911;BMP180;55953;51.650;-0.522;2022-08-16T02:05:26;99669.20;;;19.00
68911;BMP180;55953;51.650;-0.522;2022-08-16T02:07:58;99672.20;;;19.00
68911;BMP180;55953;51.650;-0.522;2022-08-16T02:10:26;99677.00;;;18.98
68911;BMP180;55953;51.650;-0.522;2022-08-16T02:12:55;99672.60;;;19.04
68911;BMP180;55953;51.650;-0.522;2022-08-16T02:15:31;99678.00;;;19.06
68911;BMP180;55953;51.650;-0.522;2022-08-16T02:18:12;99670.80;;;19.18
68911;BMP180;55953;51.650;-0.522;2022-08-16T02:20:52;99668.40;;;19.20
68911;BMP180;55953;51.650;-0.522;2022-08-16T02:23:21;99669.60;;;19.10
68911;BMP180;55953;51.650;-0.522;2022-08-16T02:25:50;99669.20;;;19.10
68911;BMP180;55953;51.650;-0.522;2022-08-16T02:28:23;99670.20;;;19.14
68911;BMP180;55953;51.650;-0.522;2022-08-16T02:30:54;99668.40;;;19.10
68911;BMP180;55953;51.650;-0.522;2022-08-16T02:33:25;99672.00;;;19.14
68911;BMP180;55953;51.650;-0.522;2022-08-16T02:36:18;99663.20;;;19.10
68911;BMP180;55953;51.650;-0.522;2022-08-16T02:39:09;99658.80;;;19.20
68911;BMP180;55953;51.650;-0.522;2022-08-16T02:41:40;99660.60;;;19.20
68911;BMP180;55953;51.650;-0.522;2022-08-16T02:44:12;99658.40;;;19.20
68911;BMP180;55953;51.650;-0.522;2022-08-16T02:46:45;99662.60;;;19.10
68911;BMP180;55953;51.650;-0.522;2022-08-16T02:49:20;99664.00;;;19.06
68911;BMP180;55953;51.650;-0.522;2022-08-16T02:52:10;99664.60;;;19.00
68911;BMP180;55953;51.650;-0.522;2022-08-16T02:54:57;99666.00;;;19.00
68911;BMP180;55953;51.650;-0.522;2022-08-16T02:57:26;99668.60;;;19.06
68911;BMP180;55953;51.650;-0.522;2022-08-16T02:59:55;99670.00;;;19.10
68911;BMP180;55953;51.650;-0.522;2022-08-16T03:02:22;99664.00;;;19.00
68911;BMP180;55953;51.650;-0.522;2022-08-16T03:05:00;99661.40;;;19.10
68911;BMP180;55953;51.650;-0.522;2022-08-16T03:07:29;99660.80;;;19.00
68911;BMP180;55953;51.650;-0.522;2022-08-16T03:10:08;99659.20;;;19.02
68911;BMP180;55953;51.650;-0.522;2022-08-16T03:12:39;99662.20;;;19.10
68911;BMP180;55953;51.650;-0.522;2022-08-16T03:15:26;99655.20;;;19.20
68911;BMP180;55953;51.650;-0.522;2022-08-16T03:17:55;99660.80;;;19.20
68911;BMP180;55953;51.650;-0.522;2022-08-16T03:20:24;99658.80;;;19.22
68911;BMP180;55953;51.650;-0.522;2022-08-16T03:23:00;99661.20;;;19.20
68911;BMP180;55953;51.650;-0.522;2022-08-16T03:25:29;99659.60;;;19.20
68911;BMP180;55953;51.650;-0.522;2022-08-16T03:28:11;99661.40;;;19.10
68911;BMP180;55953;51.650;-0.522;2022-08-16T03:30:39;99659.40;;;19.10
68911;BMP180;55953;51.650;-0.522;2022-08-16T03:33:09;99654.00;;;19.10
68911;BMP180;55953;51.650;-0.522;2022-08-16T03:35:44;99654.40;;;19.10
68911;BMP180;55953;51.650;-0.522;2022-08-16T03:38:28;99656.20;;;19.00
68911;BMP180;55953;51.650;-0.522;2022-08-16T03:41:05;99659.60;;;19.00
68911;BMP180;55953;51.650;-0.522;2022-08-16T03:43:54;99656.80;;;19.00
68911;BMP180;55953;51.650;-0.522;2022-08-16T03:46:27;99660.80;;;19.00
68911;BMP180;55953;51.650;-0.522;2022-08-16T03:49:16;99667.60;;;19.00
68911;BMP180;55953;51.650;-0.522;2022-08-16T03:51:46;99667.60;;;19.04
68911;BMP180;55953;51.650;-0.522;2022-08-16T03:54:21;99671.80;;;19.10
68911;BMP180;55953;51.650;-0.522;2022-08-16T03:56:50;99675.80;;;19.10
68911;BMP180;55953;51.650;-0.522;2022-08-16T03:59:25;99681.20;;;19.10
68911;BMP180;55953;51.650;-0.522;2022-08-16T04:01:59;99684.60;;;19.10
68911;BMP180;55953;51.650;-0.522;2022-08-16T04:04:29;99682.20;;;19.00
68911;BMP180;55953;51.650;-0.522;2022-08-16T04:07:06;99688.40;;;19.10
68911;BMP180;55953;51.650;-0.522;2022-08-16T04:09:37;99692.00;;;19.10
68911;BMP180;55953;51.650;-0.522;2022-08-16T04:12:10;99689.80;;;19.10
68911;BMP180;55953;51.650;-0.522;2022-08-16T04:14:59;99682.00;;;19.10
68911;BMP180;55953;51.650;-0.522;2022-08-16T04:17:29;99673.00;;;19.02
68911;BMP180;55953;51.650;-0.522;2022-08-16T04:19:57;99675.00;;;19.00
68911;BMP180;55953;51.650;-0.522;2022-08-16T04:22:26;99679.60;;;19.00
68911;BMP180;55953;51.650;-0.522;2022-08-16T04:24:59;99678.40;;;18.94
68911;BMP180;55953;51.650;-0.522;2022-08-16T04:27:33;99677.60;;;18.90
68911;BMP180;55953;51.650;-0.522;2022-08-16T04:30:08;99682.00;;;18.94
68911;BMP180;55953;51.650;-0.522;2022-08-16T04:32:42;99679.20;;;19.00
68911;BMP180;55953;51.650;-0.522;2022-08-16T04:35:21;99685.00;;;19.00
68911;BMP180;55953;51.650;-0.522;2022-08-16T04:37:51;99687.20;;;19.10
68911;BMP180;55953;51.650;-0.522;2022-08-16T04:40:25;99692.80;;;19.00
68911;BMP180;55953;51.650;-0.522;2022-08-16T04:42:54;99697.20;;;18.90
68911;BMP180;55953;51.650;-0.522;2022-08-16T04:45:25;99703.60;;;19.00
68911;BMP180;55953;51.650;-0.522;2022-08-16T04:48:14;99705.20;;;19.08
68911;BMP180;55953;51.650;-0.522;2022-08-16T04:50:59;99713.60;;;19.10
68911;BMP180;55953;51.650;-0.522;2022-08-16T04:53:38;99711.20;;;19.06
68911;BMP180;55953;51.650;-0.522;2022-08-16T04:56:08;99716.60;;;19.00
68911;BMP180;55953;51.650;-0.522;2022-08-16T04:58:39;99714.20;;;19.10
68911;BMP180;55953;51.650;-0.522;2022-08-16T05:01:15;99708.20;;;19.10
68911;BMP180;55953;51.650;-0.522;2022-08-16T05:03:45;99705.00;;;19.10
68911;BMP180;55953;51.650;-0.522;2022-08-16T05:06:32;99706.40;;;19.10
68911;BMP180;55953;51.650;-0.522;2022-08-16T05:09:16;99713.00;;;19.10
68911;BMP180;55953;51.650;-0.522;2022-08-16T05:11:50;99723.40;;;19.20
68911;BMP180;55953;51.650;-0.522;2022-08-16T05:14:18;99725.80;;;19.20
68911;BMP180;55953;51.650;-0.522;2022-08-16T05:17:06;99724.60;;;19.28
68911;BMP180;55953;51.650;-0.522;2022-08-16T05:19:34;99720.00;;;19.30
68911;BMP180;55953;51.650;-0.522;2022-08-16T05:22:13;99720.80;;;19.26
68911;BMP180;55953;51.650;-0.522;2022-08-16T05:24:47;99720.60;;;19.40
68911;BMP180;55953;51.650;-0.522;2022-08-16T05:27:22;99714.80;;;19.40
68911;BMP180;55953;51.650;-0.522;2022-08-16T05:29:50;99713.80;;;19.30
68911;BMP180;55953;51.650;-0.522;2022-08-16T05:32:29;99720.40;;;19.32
68911;BMP180;55953;51.650;-0.522;2022-08-16T05:35:06;99717.80;;;19.30
68911;BMP180;55953;51.650;-0.522;2022-08-16T05:37:40;99728.40;;;19.20
68911;BMP180;55953;51.650;-0.522;2022-08-16T05:40:12;99725.80;;;19.20
68911;BMP180;55953;51.650;-0.522;2022-08-16T05:42:42;99726.20;;;19.30
68911;BMP180;55953;51.650;-0.522;2022-08-16T05:45:16;99724.20;;;19.40
68911;BMP180;55953;51.650;-0.522;2022-08-16T05:47:50;99724.80;;;19.40
68911;BMP180;55953;51.650;-0.522;2022-08-16T05:50:31;99728.40;;;19.40
68911;BMP180;55953;51.650;-0.522;2022-08-16T05:53:01;99726.20;;;19.40
68911;BMP180;55953;51.650;-0.522;2022-08-16T05:55:30;99726.40;;;19.40
68911;BMP180;55953;51.650;-0.522;2022-08-16T05:58:02;99729.20;;;19.30
68911;BMP180;55953;51.650;-0.522;2022-08-16T06:00:31;99723.20;;;19.36
68911;BMP180;55953;51.650;-0.522;2022-08-16T06:02:59;99723.20;;;19.40
68911;BMP180;55953;51.650;-0.522;2022-08-16T06:05:46;99722.60;;;19.48
68911;BMP180;55953;51.650;-0.522;2022-08-16T06:08:16;99728.60;;;19.50
68911;BMP180;55953;51.650;-0.522;2022-08-16T06:11:08;99725.40;;;19.50
68911;BMP180;55953;51.650;-0.522;2022-08-16T06:13:40;99730.20;;;19.60
68911;BMP180;55953;51.650;-0.522;2022-08-16T06:16:14;99733.60;;;19.60
68911;BMP180;55953;51.650;-0.522;2022-08-16T06:18:46;99735.40;;;19.60
68911;BMP180;55953;51.650;-0.522;2022-08-16T06:21:15;99730.80;;;19.60
68911;BMP180;55953;51.650;-0.522;2022-08-16T06:23:51;99737.40;;;19.60
68911;BMP180;55953;51.650;-0.522;2022-08-16T06:26:22;99739.40;;;19.60
68911;BMP180;55953;51.650;-0.522;2022-08-16T06:29:03;99738.40;;;19.70
68911;BMP180;55953;51.650;-0.522;2022-08-16T06:31:37;99740.60;;;19.76
68911;BMP180;55953;51.650;-0.522;2022-08-16T06:34:16;99745.80;;;19.70
68911;BMP180;55953;51.650;-0.522;2022-08-16T06:37:04;99749.40;;;19.70
68911;BMP180;55953;51.650;-0.522;2022-08-16T06:39:36;99747.80;;;19.88
68911;BMP180;55953;51.650;-0.522;2022-08-16T06:42:26;99748.60;;;19.92
68911;BMP180;55953;51.650;-0.522;2022-08-16T06:45:10;99744.60;;;19.90
68911;BMP180;55953;51.650;-0.522;2022-08-16T06:47:50;99742.00;;;19.90
68911;BMP180;55953;51.650;-0.522;2022-08-16T06:50:24;99746.60;;;20.00
68911;BMP180;55953;51.650;-0.522;2022-08-16T06:52:56;99748.40;;;20.10
68911;BMP180;55953;51.650;-0.522;2022-08-16T06:55:31;99744.80;;;20.20
68911;BMP180;55953;51.650;-0.522;2022-08-16T06:58:07;99749.60;;;20.20
68911;BMP180;55953;51.650;-0.522;2022-08-16T07:00:50;99753.60;;;20.18
68911;BMP180;55953;51.650;-0.522;2022-08-16T07:03:20;99757.00;;;20.20
68911;BMP180;55953;51.650;-0.522;2022-08-16T07:05:59;99757.20;;;20.30
68911;BMP180;55953;51.650;-0.522;2022-08-16T07:08:34;99764.00;;;20.40
68911;BMP180;55953;51.650;-0.522;2022-08-16T07:11:04;99763.80;;;20.30
68911;BMP180;55953;51.650;-0.522;2022-08-16T07:13:35;99766.40;;;20.30
68911;BMP180;55953;51.650;-0.522;2022-08-16T07:16:24;99773.40;;;20.40
68911;BMP180;55953;51.650;-0.522;2022-08-16T07:18:54;99768.40;;;20.42
68911;BMP180;55953;51.650;-0.522;2022-08-16T07:21:29;99764.40;;;20.60
68911;BMP180;55953;51.650;-0.522;2022-08-16T07:24:17;99765.80;;;20.60
68911;BMP180;55953;51.650;-0.522;2022-08-16T07:27:01;99773.20;;;20.70
68911;BMP180;55953;51.650;-0.522;2022-08-16T07:29:30;99784.20;;;20.80
68911;BMP180;55953;51.650;-0.522;2022-08-16T07:31:59;99779.80;;;21.00
68911;BMP180;55953;51.650;-0.522;2022-08-16T07:34:28;99783.80;;;21.00
68911;BMP180;55953;51.650;-0.522;2022-08-16T07:37:09;99786.40;;;21.10
68911;BMP180;55953;51.650;-0.522;2022-08-16T07:39:56;99785.40;;;21.20
68911;BMP180;55953;51.650;-0.522;2022-08-16T07:42:24;99789.40;;;21.30
68911;BMP180;55953;51.650;-0.522;2022-08-16T07:45:06;99790.80;;;21.40
68911;BMP180;55953;51.650;-0.522;2022-08-16T07:47:40;99795.00;;;21.40
68911;BMP180;55953;51.650;-0.522;2022-08-16T07:50:12;99800.20;;;21.50
68911;BMP180;55953;51.650;-0.522;2022-08-16T07:53:01;99795.80;;;21.60
68911;BMP180;55953;51.650;-0.522;2022-08-16T07:55:29;99788.20;;;21.60
68911;BMP180;55953;51.650;-0.522;2022-08-16T07:58:13;99792.40;;;21.70
68911;BMP180;55953;51.650;-0.522;2022-08-16T08:01:06;99798.00;;;21.80
68911;BMP180;55953;51.650;-0.522;2022-08-16T08:03:43;99799.40;;;21.98
68911;BMP180;55953;51.650;-0.522;2022-08-16T08:06:20;99800.60;;;22.10
68911;BMP180;55953;51.650;-0.522;2022-08-16T08:08:52;99798.60;;;22.20
68911;BMP180;55953;51.650;-0.522;2022-08-16T08:11:28;99802.60;;;22.36
68911;BMP180;55953;51.650;-0.522;2022-08-16T08:14:00;99802.80;;;22.54
68911;BMP180;55953;51.650;-0.522;2022-08-16T08:16:38;99806.00;;;22.74
68911;BMP180;55953;51.650;-0.522;2022-08-16T08:19:18;99804.60;;;22.90
68911;BMP180;55953;51.650;-0.522;2022-08-16T08:21:48;99801.20;;;23.00
68911;BMP180;55953;51.650;-0.522;2022-08-16T08:24:43;99803.60;;;23.00
68911;BMP180;55953;51.650;-0.522;2022-08-16T08:27:13;99809.60;;;23.20
68911;BMP180;55953;51.650;-0.522;2022-08-16T08:29:51;99808.40;;;23.40
68911;BMP180;55953;51.650;-0.522;2022-08-16T08:32:41;99817.60;;;23.50
68911;BMP180;55953;51.650;-0.522;2022-08-16T08:35:26;99812.20;;;23.60
68911;BMP180;55953;51.650;-0.522;2022-08-16T08:37:55;99809.00;;;23.66
68911;BMP180;55953;51.650;-0.522;2022-08-16T08:40:28;99811.40;;;23.80
68911;BMP180;55953;51.650;-0.522;2022-08-16T08:42:59;99820.00;;;23.80
68911;BMP180;55953;51.650;-0.522;2022-08-16T08:45:53;99828.00;;;23.90
68911;BMP180;55953;51.650;-0.522;2022-08-16T08:48:25;99824.80;;;24.00
68911;BMP180;55953;51.650;-0.522;2022-08-16T08:51:07;99822.40;;;24.00
68911;BMP180;55953;51.650;-0.522;2022-08-16T08:54:09;99827.60;;;24.20
68911;BMP180;55953;51.650;-0.522;2022-08-16T08:56:40;99837.60;;;24.30
68911;BMP180;55953;51.650;-0.522;2022-08-16T08:59:33;99840.80;;;24.30
68911;BMP180;55953;51.650;-0.522;2022-08-16T09:02:08;99840.20;;;24.48
68911;BMP180;55953;51.650;-0.522;2022-08-16T09:04:45;99846.00;;;24.62
68911;BMP180;55953;51.650;-0.522;2022-08-16T09:07:17;99841.60;;;24.80
68911;BMP180;55953;51.650;-0.522;2022-08-16T09:09:47;99841.00;;;24.90
68911;BMP180;55953;51.650;-0.522;2022-08-16T09:12:27;99842.80;;;24.98
68911;BMP180;55953;51.650;-0.522;2022-08-16T09:15:10;99843.20;;;24.90
68911;BMP180;55953;51.650;-0.522;2022-08-16T09:17:42;99835.80;;;24.90
68911;BMP180;55953;51.650;-0.522;2022-08-16T09:20:25;99837.60;;;25.00
68911;BMP180;55953;51.650;-0.522;2022-08-16T09:22:55;99841.80;;;25.00
68911;BMP180;55953;51.650;-0.522;2022-08-16T09:25:30;99846.20;;;24.90
68911;BMP180;55953;51.650;-0.522;2022-08-16T09:28:08;99843.00;;;24.80
68911;BMP180;55953;51.650;-0.522;2022-08-16T09:30:54;99843.00;;;24.90
68911;BMP180;55953;51.650;-0.522;2022-08-16T09:33:22;99842.40;;;24.90
68911;BMP180;55953;51.650;-0.522;2022-08-16T09:35:51;99849.00;;;24.92
68911;BMP180;55953;51.650;-0.522;2022-08-16T09:38:23;99852.20;;;25.20
68911;BMP180;55953;51.650;-0.522;2022-08-16T09:41:02;99852.20;;;25.50
68911;BMP180;55953;51.650;-0.522;2022-08-16T09:43:33;99852.60;;;25.50
68911;BMP180;55953;51.650;-0.522;2022-08-16T09:46:21;99851.00;;;25.70
68911;BMP180;55953;51.650;-0.522;2022-08-16T09:49:10;99855.20;;;25.90
68911;BMP180;55953;51.650;-0.522;2022-08-16T09:51:39;99857.00;;;26.00
68911;BMP180;55953;51.650;-0.522;2022-08-16T09:54:06;99854.00;;;26.00
68911;BMP180;55953;51.650;-0.522;2022-08-16T09:56:43;99856.00;;;26.00
68911;BMP180;55953;51.650;-0.522;2022-08-16T09:59:24;99856.20;;;26.00
68911;BMP180;55953;51.650;-0.522;2022-08-16T10:01:58;99856.80;;;26.00
68911;BMP180;55953;51.650;-0.522;2022-08-16T10:04:47;99856.00;;;26.08
68911;BMP180;55953;51.650;-0.522;2022-08-16T10:07:27;99859.20;;;26.00
68911;BMP180;55953;51.650;-0.522;2022-08-16T10:10:13;99864.20;;;25.90
68911;BMP180;55953;51.650;-0.522;2022-08-16T10:12:58;99872.20;;;25.80
68911;BMP180;55953;51.650;-0.522;2022-08-16T10:15:46;99869.80;;;25.70
68911;BMP180;55953;51.650;-0.522;2022-08-16T10:18:22;99874.40;;;25.70
68911;BMP180;55953;51.650;-0.522;2022-08-16T10:21:10;99878.80;;;25.80
68911;BMP180;55953;51.650;-0.522;2022-08-16T10:23:45;99877.40;;;25.80
68911;BMP180;55953;51.650;-0.522;2022-08-16T10:26:14;99873.00;;;25.70
68911;BMP180;55953;51.650;-0.522;2022-08-16T10:29:04;99871.00;;;25.72
68911;BMP180;55953;51.650;-0.522;2022-08-16T10:31:33;99876.40;;;25.70
68911;BMP180;55953;51.650;-0.522;2022-08-16T10:34:13;99876.40;;;25.60
68911;BMP180;55953;51.650;-0.522;2022-08-16T10:37:02;99880.80;;;25.50
68911;BMP180;55953;51.650;-0.522;2022-08-16T10:39:30;99878.80;;;25.40
68911;BMP180;55953;51.650;-0.522;2022-08-16T10:42:09;99882.80;;;25.30
68911;BMP180;55953;51.650;-0.522;2022-08-16T10:44:40;99894.00;;;25.12
68911;BMP180;55953;51.650;-0.522;2022-08-16T10:47:09;99896.00;;;25.00
68911;BMP180;55953;51.650;-0.522;2022-08-16T10:49:38;99901.60;;;24.62
68911;BMP180;55953;51.650;-0.522;2022-08-16T10:52:07;99907.80;;;24.10
68911;BMP180;55953;51.650;-0.522;2022-08-16T10:54:46;99916.00;;;23.70
68911;BMP180;55953;51.650;-0.522;2022-08-16T10:57:34;99919.20;;;23.36
68911;BMP180;55953;51.650;-0.522;2022-08-16T11:00:07;99929.00;;;23.08
68911;BMP180;55953;51.650;-0.522;2022-08-16T11:02:50;99928.80;;;22.90
68911;BMP180;55953;51.650;-0.522;2022-08-16T11:05:40;99933.20;;;22.80
68911;BMP180;55953;51.650;-0.522;2022-08-16T11:08:29;99939.00;;;22.80
68911;BMP180;55953;51.650;-0.522;2022-08-16T11:11:06;99944.80;;;22.98
68911;BMP180;55953;51.650;-0.522;2022-08-16T11:13:47;99943.20;;;23.10
68911;BMP180;55953;51.650;-0.522;2022-08-16T11:16:35;99944.80;;;23.30
68911;BMP180;55953;51.650;-0.522;2022-08-16T11:19:24;99940.60;;;23.40
68911;BMP180;55953;51.650;-0.522;2022-08-16T11:21:55;99945.40;;;23.50
68911;BMP180;55953;51.650;-0.522;2022-08-16T11:24:43;99943.20;;;23.70
68911;BMP180;55953;51.650;-0.522;2022-08-16T11:27:31;99945.40;;;23.80
68911;BMP180;55953;51.650;-0.522;2022-08-16T11:30:04;99948.60;;;23.80
68911;BMP180;55953;51.650;-0.522;2022-08-16T11:32:36;99950.00;;;23.90
68911;BMP180;55953;51.650;-0.522;2022-08-16T11:35:09;99953.20;;;24.00
68911;BMP180;55953;51.650;-0.522;2022-08-16T11:40:53;99953.00;;;24.00
68911;BMP180;55953;51.650;-0.522;2022-08-16T11:43:33;99952.00;;;23.96
68911;BMP180;55953;51.650;-0.522;2022-08-16T11:46:08;99954.40;;;23.90
68911;BMP180;55953;51.650;-0.522;2022-08-16T11:48:56;99957.20;;;23.80
68911;BMP180;55953;51.650;-0.522;2022-08-16T11:51:24;99958.60;;;23.70
68911;BMP180;55953;51.650;-0.522;2022-08-16T11:53:52;99959.80;;;23.70
68911;BMP180;55953;51.650;-0.522;2022-08-16T11:56:22;99961.40;;;23.60
68911;BMP180;55953;51.650;-0.522;2022-08-16T11:59:10;99965.60;;;23.40
68911;BMP180;55953;51.650;-0.522;2022-08-16T12:01:39;99970.80;;;23.30
68911;BMP180;55953;51.650;-0.522;2022-08-16T12:04:22;99969.40;;;23.30
68911;BMP180;55953;51.650;-0.522;2022-08-16T12:06:52;99968.40;;;23.30
68911;BMP180;55953;51.650;-0.522;2022-08-16T12:09:22;99962.40;;;23.40
68911;BMP180;55953;51.650;-0.522;2022-08-16T12:11:57;99965.40;;;23.50
68911;BMP180;55953;51.650;-0.522;2022-08-16T12:14:35;99967.20;;;23.50
68911;BMP180;55953;51.650;-0.522;2022-08-16T12:17:07;99961.20;;;23.60
68911;BMP180;55953;51.650;-0.522;2022-08-16T12:19:35;99962.00;;;23.80
68911;BMP180;55953;51.650;-0.522;2022-08-16T12:22:05;99960.00;;;23.96
68911;BMP180;55953;51.650;-0.522;2022-08-16T12:24:47;99955.20;;;24.00
68911;BMP180;55953;51.650;-0.522;2022-08-16T12:27:24;99952.60;;;24.10
68911;BMP180;55953;51.650;-0.522;2022-08-16T12:29:53;99956.00;;;24.10
68911;BMP180;55953;51.650;-0.522;2022-08-16T12:32:25;99958.20;;;24.10
68911;BMP180;55953;51.650;-0.522;2022-08-16T12:35:14;99948.00;;;24.16
68911;BMP180;55953;51.650;-0.522;2022-08-16T12:37:44;99942.80;;;24.10
68911;BMP180;55953;51.650;-0.522;2022-08-16T12:40:18;99940.20;;;24.10
68911;BMP180;55953;51.650;-0.522;2022-08-16T12:42:55;99945.00;;;24.30
68911;BMP180;55953;51.650;-0.522;2022-08-16T12:45:32;99944.20;;;24.50
68911;BMP180;55953;51.650;-0.522;2022-08-16T12:48:04;99938.80;;;24.70
68911;BMP180;55953;51.650;-0.522;2022-08-16T12:51:13;99935.60;;;24.80
68911;BMP180;55953;51.650;-0.522;2022-08-16T12:53:48;99938.80;;;24.90
68911;BMP180;55953;51.650;-0.522;2022-08-16T12:56:21;99939.80;;;25.00
68911;BMP180;55953;51.650;-0.522;2022-08-16T12:58:55;99941.00;;;25.10
68911;BMP180;55953;51.650;-0.522;2022-08-16T13:01:29;99939.00;;;25.10
68911;BMP180;55953;51.650;-0.522;2022-08-16T13:04:00;99942.60;;;25.20
68911;BMP180;55953;51.650;-0.522;2022-08-16T13:06:47;99936.60;;;25.40
68911;BMP180;55953;51.650;-0.522;2022-08-16T13:09:21;99934.60;;;25.40
68911;BMP180;55953;51.650;-0.522;2022-08-16T13:12:05;99937.20;;;25.50
68911;BMP180;55953;51.650;-0.522;2022-08-16T13:14:41;99936.80;;;25.60
68911;BMP180;55953;51.650;-0.522;2022-08-16T13:17:18;99937.00;;;25.60
68911;BMP180;55953;51.650;-0.522;2022-08-16T13:19:51;99939.80;;;25.50
68911;BMP180;55953;51.650;-0.522;2022-08-16T13:22:44;99936.40;;;25.40
68911;BMP180;55953;51.650;-0.522;2022-08-16T13:25:18;99937.80;;;25.40
68911;BMP180;55953;51.650;-0.522;2022-08-16T13:27:51;99933.20;;;25.40
68911;BMP180;55953;51.650;-0.522;2022-08-16T13:30:41;99942.00;;;25.50
68911;BMP180;55953;51.650;-0.522;2022-08-16T13:33:16;99936.00;;;25.68
68911;BMP180;55953;51.650;-0.522;2022-08-16T13:35:59;99928.80;;;25.76
68911;BMP180;55953;51.650;-0.522;2022-08-16T13:38:30;99931.00;;;25.82
68911;BMP180;55953;51.650;-0.522;2022-08-16T13:41:09;99930.00;;;26.00
68911;BMP180;55953;51.650;-0.522;2022-08-16T13:43:39;99935.00;;;26.20
68911;BMP180;55953;51.650;-0.522;2022-08-16T13:46:08;99924.20;;;26.40
68911;BMP180;55953;51.650;-0.522;2022-08-16T13:48:37;99923.60;;;26.50
68911;BMP180;55953;51.650;-0.522;2022-08-16T13:51:16;99926.80;;;26.54
68911;BMP180;55953;51.650;-0.522;2022-08-16T13:53:48;99921.00;;;26.40
68911;BMP180;55953;51.650;-0.522;2022-08-16T13:56:32;99922.40;;;26.22
68911;BMP180;55953;51.650;-0.522;2022-08-16T13:59:11;99922.60;;;26.20
68911;BMP180;55953;51.650;-0.522;2022-08-16T14:01:55;99917.20;;;26.12
68911;BMP180;55953;51.650;-0.522;2022-08-16T14:04:32;99927.00;;;26.20
68911;BMP180;55953;51.650;-0.522;2022-08-16T14:07:07;99925.60;;;26.20
68911;BMP180;55953;51.650;-0.522;2022-08-16T14:09:36;99921.20;;;26.10
68911;BMP180;55953;51.650;-0.522;2022-08-16T14:12:22;99922.20;;;26.10
68911;BMP180;55953;51.650;-0.522;2022-08-16T14:14:51;99920.00;;;26.10
68911;BMP180;55953;51.650;-0.522;2022-08-16T14:17:26;99919.80;;;26.10
68911;BMP180;55953;51.650;-0.522;2022-08-16T14:19:55;99921.20;;;26.00
68911;BMP180;55953;51.650;-0.522;2022-08-16T14:22:32;99918.40;;;26.00
68911;BMP180;55953;51.650;-0.522;2022-08-16T14:25:07;99916.40;;;25.90
68911;BMP180;55953;51.650;-0.522;2022-08-16T14:27:37;99916.80;;;25.96
68911;BMP180;55953;51.650;-0.522;2022-08-16T14:30:12;99915.00;;;26.00
68911;BMP180;55953;51.650;-0.522;2022-08-16T14:32:43;99916.20;;;26.00
68911;BMP180;55953;51.650;-0.522;2022-08-16T14:35:24;99914.20;;;26.00
68911;BMP180;55953;51.650;-0.522;2022-08-16T14:38:13;99914.60;;;25.90
68911;BMP180;55953;51.650;-0.522;2022-08-16T14:40:46;99917.40;;;25.90
68911;BMP180;55953;51.650;-0.522;2022-08-16T14:43:24;99914.00;;;25.80
68911;BMP180;55953;51.650;-0.522;2022-08-16T14:45:56;99906.80;;;25.80
68911;BMP180;55953;51.650;-0.522;2022-08-16T14:48:24;99907.60;;;25.80
68911;BMP180;55953;51.650;-0.522;2022-08-16T14:50:54;99906.60;;;25.80
68911;BMP180;55953;51.650;-0.522;2022-08-16T14:53:24;99898.20;;;25.80
68911;BMP180;55953;51.650;-0.522;2022-08-16T14:55:54;99901.80;;;25.84